sensor_id;sensor_type;location;lat;lon;timestamp;temperature;humidity
29431;DHT22;16404;49.902;10.074;2023-07-31T00:01:39;21.30;50.00
29431;DHT22;16404;49.902;10.074;2023-07-31T00:04:24;21.30;50.00
29431;DHT22;16404;49.902;10.074;2023-07-31T00:07:08;21.20;50.10
29431;DHT22;16404;49.902;10.074;2023-07-31T00:09:53;21.20;50.20
29431;DHT22;16404;49.902;10.074;2023-07-31T00:12:45;21.20;50.40
29431;DHT22;16404;49.902;10.074;2023-07-31T00:15:30;21.10;50.40
29431;DHT22;16404;49.902;10.074;2023-07-31T00:18:15;21.10;50.60
29431;DHT22;16404;49.902;10.074;2023-07-31T00:20:59;21.10;50.80
29431;DHT22;16404;49.902;10.074;2023-07-31T00:23:44;21.10;50.80
29431;DHT22;16404;49.902;10.074;2023-07-31T00:26:28;21.10;50.80
29431;DHT22;16404;49.902;10.074;2023-07-31T00:29:13;21.10;50.80
29431;DHT22;16404;49.902;10.074;2023-07-31T00:31:57;21.10;50.90
29431;DHT22;16404;49.902;10.074;2023-07-31T00:34:42;21.10;50.90
29431;DHT22;16404;49.902;10.074;2023-07-31T00:37:26;21.10;50.90
29431;DHT22;16404;49.902;10.074;2023-07-31T00:40:11;21.10;50.80
29431;DHT22;16404;49.902;10.074;2023-07-31T00:42:56;21.10;50.80
29431;DHT22;16404;49.902;10.074;2023-07-31T00:45:40;21.10;50.80
29431;DHT22;16404;49.902;10.074;2023-07-31T00:48:25;21.10;50.60
29431;DHT22;16404;49.902;10.074;2023-07-31T00:51:10;21.20;50.50
29431;DHT22;16404;49.902;10.074;2023-07-31T00:53:55;21.10;50.60
29431;DHT22;16404;49.902;10.074;2023-07-31T00:56:40;21.20;50.60
29431;DHT22;16404;49.902;10.074;2023-07-31T00:59:25;21.20;50.50
29431;DHT22;16404;49.902;10.074;2023-07-31T01:02:10;21.20;50.60
29431;DHT22;16404;49.902;10.074;2023-07-31T01:04:55;21.20;50.60
29431;DHT22;16404;49.902;10.074;2023-07-31T01:08:02;21.10;50.70
29431;DHT22;16404;49.902;10.074;2023-07-31T01:10:52;21.10;50.90
29431;DHT22;16404;49.902;10.074;2023-07-31T01:13:39;21.10;50.90
29431;DHT22;16404;49.902;10.074;2023-07-31T01:16:24;21.00;51.00
29431;DHT22;16404;49.902;10.074;2023-07-31T01:19:10;21.10;51.10
29431;DHT22;16404;49.902;10.074;2023-07-31T01:22:30;21.10;51.10
29431;DHT22;16404;49.902;10.074;2023-07-31T01:28:05;21.20;51.00
29431;DHT22;16404;49.902;10.074;2023-07-31T01:30:51;21.20;51.10
29431;DHT22;16404;49.902;10.074;2023-07-31T01:33:39;21.20;51.10
29431;DHT22;16404;49.902;10.074;2023-07-31T01:36:24;21.20;51.00
29431;DHT22;16404;49.902;10.074;2023-07-31T01:39:08;21.20;51.10
29431;DHT22;16404;49.902;10.074;2023-07-31T01:41:53;21.20;51.20
29431;DHT22;16404;49.902;10.074;2023-07-31T01:44:38;21.20;51.20
29431;DHT22;16404;49.902;10.074;2023-07-31T01:47:23;21.30;51.00
29431;DHT22;16404;49.902;10.074;2023-07-31T01:50:08;21.20;51.00
29431;DHT22;16404;49.902;10.074;2023-07-31T01:52:52;21.20;51.00
29431;DHT22;16404;49.902;10.074;2023-07-31T01:55:37;21.20;51.20
29431;DHT22;16404;49.902;10.074;2023-07-31T01:58:22;21.20;51.40
29431;DHT22;16404;49.902;10.074;2023-07-31T02:01:06;21.10;51.40
29431;DHT22;16404;49.902;10.074;2023-07-31T02:03:52;21.10;51.40
29431;DHT22;16404;49.902;10.074;2023-07-31T02:06:37;21.10;51.50
29431;DHT22;16404;49.902;10.074;2023-07-31T02:09:21;21.10;51.50
29431;DHT22;16404;49.902;10.074;2023-07-31T02:12:06;21.10;51.60
29431;DHT22;16404;49.902;10.074;2023-07-31T02:14:52;21.10;51.60
29431;DHT22;16404;49.902;10.074;2023-07-31T02:17:37;21.10;51.70
29431;DHT22;16404;49.902;10.074;2023-07-31T02:20:21;21.00;51.80
29431;DHT22;16404;49.902;10.074;2023-07-31T02:23:06;21.00;51.90
29431;DHT22;16404;49.902;10.074;2023-07-31T02:25:51;21.00;51.90
29431;DHT22;16404;49.902;10.074;2023-07-31T02:28:35;21.00;51.90
29431;DHT22;16404;49.902;10.074;2023-07-31T02:31:20;21.00;51.90
29431;DHT22;16404;49.902;10.074;2023-07-31T02:34:04;21.00;52.10
29431;DHT22;16404;49.902;10.074;2023-07-31T02:36:49;20.90;52.20
29431;DHT22;16404;49.902;10.074;2023-07-31T02:39:33;20.90;52.20
29431;DHT22;16404;49.902;10.074;2023-07-31T02:42:18;20.90;52.30
29431;DHT22;16404;49.902;10.074;2023-07-31T02:45:03;20.90;52.30
29431;DHT22;16404;49.902;10.074;2023-07-31T02:47:47;20.90;52.40
29431;DHT22;16404;49.902;10.074;2023-07-31T02:50:33;20.90;52.40
29431;DHT22;16404;49.902;10.074;2023-07-31T02:53:17;20.90;52.40
29431;DHT22;16404;49.902;10.074;2023-07-31T02:56:02;20.80;52.50
29431;DHT22;16404;49.902;10.074;2023-07-31T02:58:46;20.80;52.60
29431;DHT22;16404;49.902;10.074;2023-07-31T03:01:31;20.70;52.70
29431;DHT22;16404;49.902;10.074;2023-07-31T03:04:15;20.70;52.80
29431;DHT22;16404;49.902;10.074;2023-07-31T03:07:00;20.60;52.80
29431;DHT22;16404;49.902;10.074;2023-07-31T03:09:44;20.60;53.00
29431;DHT22;16404;49.902;10.074;2023-07-31T03:12:29;20.60;53.20
29431;DHT22;16404;49.902;10.074;2023-07-31T03:15:14;20.50;53.20
29431;DHT22;16404;49.902;10.074;2023-07-31T03:17:58;20.40;53.40
29431;DHT22;16404;49.902;10.074;2023-07-31T03:20:43;20.40;53.50
29431;DHT22;16404;49.902;10.074;2023-07-31T03:23:28;20.40;53.60
29431;DHT22;16404;49.902;10.074;2023-07-31T03:26:12;20.40;53.60
29431;DHT22;16404;49.902;10.074;2023-07-31T03:28:58;20.40;53.80
29431;DHT22;16404;49.902;10.074;2023-07-31T03:31:42;20.40;53.90
29431;DHT22;16404;49.902;10.074;2023-07-31T03:34:27;20.30;53.90
29431;DHT22;16404;49.902;10.074;2023-07-31T03:37:12;20.30;53.90
29431;DHT22;16404;49.902;10.074;2023-07-31T03:39:56;20.30;54.00
29431;DHT22;16404;49.902;10.074;2023-07-31T03:42:41;20.30;54.20
29431;DHT22;16404;49.902;10.074;2023-07-31T03:45:25;20.30;54.00
29431;DHT22;16404;49.902;10.074;2023-07-31T03:48:10;20.30;54.40
29431;DHT22;16404;49.902;10.074;2023-07-31T03:50:55;20.40;54.20
29431;DHT22;16404;49.902;10.074;2023-07-31T03:53:40;20.30;54.20
29431;DHT22;16404;49.902;10.074;2023-07-31T03:56:24;20.40;54.00
29431;DHT22;16404;49.902;10.074;2023-07-31T03:59:09;20.40;54.10
29431;DHT22;16404;49.902;10.074;2023-07-31T04:01:53;20.40;54.10
29431;DHT22;16404;49.902;10.074;2023-07-31T04:04:38;20.50;54.40
29431;DHT22;16404;49.902;10.074;2023-07-31T04:07:22;20.60;54.00
29431;DHT22;16404;49.902;10.074;2023-07-31T04:10:07;20.70;53.90
29431;DHT22;16404;49.902;10.074;2023-07-31T04:12:52;20.70;53.90
29431;DHT22;16404;49.902;10.074;2023-07-31T04:15:36;20.70;53.80
29431;DHT22;16404;49.902;10.074;2023-07-31T04:18:24;20.70;53.80
29431;DHT22;16404;49.902;10.074;2023-07-31T04:21:08;20.70;53.70
29431;DHT22;16404;49.902;10.074;2023-07-31T04:23:54;20.70;53.70
29431;DHT22;16404;49.902;10.074;2023-07-31T04:26:40;20.70;53.90
29431;DHT22;16404;49.902;10.074;2023-07-31T04:29:25;20.70;53.90
29431;DHT22;16404;49.902;10.074;2023-07-31T04:32:09;20.60;53.90
29431;DHT22;16404;49.902;10.074;2023-07-31T04:34:54;20.70;54.00
29431;DHT22;16404;49.902;10.074;2023-07-31T04:37:39;20.70;53.90
29431;DHT22;16404;49.902;10.074;2023-07-31T04:40:23;20.70;54.00
29431;DHT22;16404;49.902;10.074;2023-07-31T04:43:08;20.60;54.10
29431;DHT22;16404;49.902;10.074;2023-07-31T04:45:52;20.60;54.10
29431;DHT22;16404;49.902;10.074;2023-07-31T04:48:38;20.60;54.20
29431;DHT22;16404;49.902;10.074;2023-07-31T04:51:22;20.60;54.00
29431;DHT22;16404;49.902;10.074;2023-07-31T04:54:08;20.60;54.00
29431;DHT22;16404;49.902;10.074;2023-07-31T04:56:52;20.60;54.10
29431;DHT22;16404;49.902;10.074;2023-07-31T04:59:37;20.60;54.20
29431;DHT22;16404;49.902;10.074;2023-07-31T05:02:21;20.60;54.20
29431;DHT22;16404;49.902;10.074;2023-07-31T05:05:06;20.60;54.20
29431;DHT22;16404;49.902;10.074;2023-07-31T05:07:51;20.70;54.10
29431;DHT22;16404;49.902;10.074;2023-07-31T05:10:35;20.80;53.90
29431;DHT22;16404;49.902;10.074;2023-07-31T05:13:20;20.90;53.80
29431;DHT22;16404;49.902;10.074;2023-07-31T05:16:04;21.00;54.30
29431;DHT22;16404;49.902;10.074;2023-07-31T05:18:49;21.00;53.60
29431;DHT22;16404;49.902;10.074;2023-07-31T05:21:34;21.00;53.50
29431;DHT22;16404;49.902;10.074;2023-07-31T05:24:18;21.10;53.30
29431;DHT22;16404;49.902;10.074;2023-07-31T05:27:03;21.10;53.30
29431;DHT22;16404;49.902;10.074;2023-07-31T05:29:48;21.10;53.20
29431;DHT22;16404;49.902;10.074;2023-07-31T05:32:33;21.10;53.10
29431;DHT22;16404;49.902;10.074;2023-07-31T05:35:17;21.20;53.10
29431;DHT22;16404;49.902;10.074;2023-07-31T05:38:02;21.20;53.00
29431;DHT22;16404;49.902;10.074;2023-07-31T05:40:47;21.20;53.00
29431;DHT22;16404;49.902;10.074;2023-07-31T05:43:31;21.20;52.90
29431;DHT22;16404;49.902;10.074;2023-07-31T05:46:16;21.30;52.80
29431;DHT22;16404;49.902;10.074;2023-07-31T05:49:00;21.30;52.70
29431;DHT22;16404;49.902;10.074;2023-07-31T05:51:45;21.30;52.80
29431;DHT22;16404;49.902;10.074;2023-07-31T05:54:31;21.40;52.90
29431;DHT22;16404;49.902;10.074;2023-07-31T05:57:15;21.50;52.90
29431;DHT22;16404;49.902;10.074;2023-07-31T06:00:00;21.70;52.40
29431;DHT22;16404;49.902;10.074;2023-07-31T06:02:44;21.80;52.00
29431;DHT22;16404;49.902;10.074;2023-07-31T06:05:29;21.80;51.90
29431;DHT22;16404;49.902;10.074;2023-07-31T06:08:14;21.90;51.60
29431;DHT22;16404;49.902;10.074;2023-07-31T06:10:58;22.10;51.50
29431;DHT22;16404;49.902;10.074;2023-07-31T06:13:43;22.20;51.60
29431;DHT22;16404;49.902;10.074;2023-07-31T06:16:28;22.20;51.00
29431;DHT22;16404;49.902;10.074;2023-07-31T06:19:13;22.30;50.80
29431;DHT22;16404;49.902;10.074;2023-07-31T06:21:58;22.40;50.40
29431;DHT22;16404;49.902;10.074;2023-07-31T06:24:43;22.60;50.30
29431;DHT22;16404;49.902;10.074;2023-07-31T06:27:28;22.70;50.00
29431;DHT22;16404;49.902;10.074;2023-07-31T06:30:12;22.80;49.80
29431;DHT22;16404;49.902;10.074;2023-07-31T06:32:57;22.90;49.80
29431;DHT22;16404;49.902;10.074;2023-07-31T06:35:41;22.90;49.50
29431;DHT22;16404;49.902;10.074;2023-07-31T06:38:26;22.90;49.30
29431;DHT22;16404;49.902;10.074;2023-07-31T06:41:11;22.90;49.20
29431;DHT22;16404;49.902;10.074;2023-07-31T06:43:55;23.00;49.30
29431;DHT22;16404;49.902;10.074;2023-07-31T06:46:40;22.90;49.20
29431;DHT22;16404;49.902;10.074;2023-07-31T06:49:24;22.90;49.00
29431;DHT22;16404;49.902;10.074;2023-07-31T06:52:09;22.90;49.10
29431;DHT22;16404;49.902;10.074;2023-07-31T06:55:04;22.80;49.00
29431;DHT22;16404;49.902;10.074;2023-07-31T06:58:00;22.80;49.10
29431;DHT22;16404;49.902;10.074;2023-07-31T07:00:44;22.90;48.90
29431;DHT22;16404;49.902;10.074;2023-07-31T07:03:29;22.90;48.90
29431;DHT22;16404;49.902;10.074;2023-07-31T07:06:13;23.00;48.90
29431;DHT22;16404;49.902;10.074;2023-07-31T07:08:58;23.00;48.90
29431;DHT22;16404;49.902;10.074;2023-07-31T07:11:44;23.10;48.60
29431;DHT22;16404;49.902;10.074;2023-07-31T07:14:28;23.00;48.50
29431;DHT22;16404;49.902;10.074;2023-07-31T07:17:13;23.00;48.80
29431;DHT22;16404;49.902;10.074;2023-07-31T07:19:58;23.00;48.90
29431;DHT22;16404;49.902;10.074;2023-07-31T07:22:43;23.10;48.70
29431;DHT22;16404;49.902;10.074;2023-07-31T07:25:27;23.10;48.70
29431;DHT22;16404;49.902;10.074;2023-07-31T07:28:13;23.20;48.70
29431;DHT22;16404;49.902;10.074;2023-07-31T07:30:58;23.40;48.60
29431;DHT22;16404;49.902;10.074;2023-07-31T07:33:43;23.50;48.40
29431;DHT22;16404;49.902;10.074;2023-07-31T07:36:28;23.50;48.00
29431;DHT22;16404;49.902;10.074;2023-07-31T07:39:12;23.50;48.00
29431;DHT22;16404;49.902;10.074;2023-07-31T07:41:57;23.50;48.10
29431;DHT22;16404;49.902;10.074;2023-07-31T07:44:42;23.50;48.20
29431;DHT22;16404;49.902;10.074;2023-07-31T07:47:26;23.50;48.10
29431;DHT22;16404;49.902;10.074;2023-07-31T07:50:11;23.60;48.10
29431;DHT22;16404;49.902;10.074;2023-07-31T07:52:55;23.70;48.00
29431;DHT22;16404;49.902;10.074;2023-07-31T07:55:40;23.80;47.80
29431;DHT22;16404;49.902;10.074;2023-07-31T07:58:24;24.00;47.80
29431;DHT22;16404;49.902;10.074;2023-07-31T08:01:09;24.20;47.50
29431;DHT22;16404;49.902;10.074;2023-07-31T08:03:53;24.40;47.10
29431;DHT22;16404;49.902;10.074;2023-07-31T08:06:38;24.50;47.00
29431;DHT22;16404;49.902;10.074;2023-07-31T08:09:22;24.80;46.70
29431;DHT22;16404;49.902;10.074;2023-07-31T08:12:07;25.10;46.10
29431;DHT22;16404;49.902;10.074;2023-07-31T08:14:51;25.30;45.50
29431;DHT22;16404;49.902;10.074;2023-07-31T08:17:36;25.50;45.20
29431;DHT22;16404;49.902;10.074;2023-07-31T08:20:21;25.70;44.70
29431;DHT22;16404;49.902;10.074;2023-07-31T08:23:05;25.80;44.50
29431;DHT22;16404;49.902;10.074;2023-07-31T08:25:50;25.90;44.50
29431;DHT22;16404;49.902;10.074;2023-07-31T08:28:35;26.10;45.00
29431;DHT22;16404;49.902;10.074;2023-07-31T08:31:20;26.20;43.90
29431;DHT22;16404;49.902;10.074;2023-07-31T08:34:05;26.10;43.90
29431;DHT22;16404;49.902;10.074;2023-07-31T08:36:49;26.00;43.80
29431;DHT22;16404;49.902;10.074;2023-07-31T08:39:34;26.00;43.80
29431;DHT22;16404;49.902;10.074;2023-07-31T08:42:19;25.90;44.10
29431;DHT22;16404;49.902;10.074;2023-07-31T08:45:04;26.00;44.20
29431;DHT22;16404;49.902;10.074;2023-07-31T08:47:49;26.00;43.90
29431;DHT22;16404;49.902;10.074;2023-07-31T08:50:34;26.20;44.20
29431;DHT22;16404;49.902;10.074;2023-07-31T08:53:19;26.40;44.00
29431;DHT22;16404;49.902;10.074;2023-07-31T08:56:05;26.50;43.50
29431;DHT22;16404;49.902;10.074;2023-07-31T08:58:51;26.50;43.30
29431;DHT22;16404;49.902;10.074;2023-07-31T09:01:40;26.60;42.90
29431;DHT22;16404;49.902;10.074;2023-07-31T09:04:27;26.50;42.90
29431;DHT22;16404;49.902;10.074;2023-07-31T09:07:12;26.40;42.70
29431;DHT22;16404;49.902;10.074;2023-07-31T09:09:57;26.50;43.20
29431;DHT22;16404;49.902;10.074;2023-07-31T09:12:42;26.50;43.10
29431;DHT22;16404;49.902;10.074;2023-07-31T09:15:28;26.50;42.90
29431;DHT22;16404;49.902;10.074;2023-07-31T09:18:13;26.50;43.00
29431;DHT22;16404;49.902;10.074;2023-07-31T09:21:05;26.50;43.10
29431;DHT22;16404;49.902;10.074;2023-07-31T09:23:50;26.60;43.20
29431;DHT22;16404;49.902;10.074;2023-07-31T09:26:38;26.60;42.90
29431;DHT22;16404;49.902;10.074;2023-07-31T09:29:23;26.60;42.90
29431;DHT22;16404;49.902;10.074;2023-07-31T09:32:16;26.70;42.70
29431;DHT22;16404;49.902;10.074;2023-07-31T09:35:01;26.70;42.70
29431;DHT22;16404;49.902;10.074;2023-07-31T09:37:52;26.70;42.80
29431;DHT22;16404;49.902;10.074;2023-07-31T09:40:44;26.70;43.10
29431;DHT22;16404;49.902;10.074;2023-07-31T09:43:29;26.80;42.90
29431;DHT22;16404;49.902;10.074;2023-07-31T09:46:14;26.90;42.60
29431;DHT22;16404;49.902;10.074;2023-07-31T09:49:08;27.00;42.60
29431;DHT22;16404;49.902;10.074;2023-07-31T09:51:53;27.00;42.40
29431;DHT22;16404;49.902;10.074;2023-07-31T09:54:37;27.10;42.30
29431;DHT22;16404;49.902;10.074;2023-07-31T09:57:22;27.20;41.90
29431;DHT22;16404;49.902;10.074;2023-07-31T10:00:08;27.20;42.00
29431;DHT22;16404;49.902;10.074;2023-07-31T10:02:58;27.20;42.00
29431;DHT22;16404;49.902;10.074;2023-07-31T10:05:49;27.20;41.50
29431;DHT22;16404;49.902;10.074;2023-07-31T10:08:35;27.10;41.50
29431;DHT22;16404;49.902;10.074;2023-07-31T10:11:21;27.00;41.70
29431;DHT22;16404;49.902;10.074;2023-07-31T10:14:07;26.80;42.50
29431;DHT22;16404;49.902;10.074;2023-07-31T10:16:51;26.90;42.50
29431;DHT22;16404;49.902;10.074;2023-07-31T10:19:37;26.90;42.50
29431;DHT22;16404;49.902;10.074;2023-07-31T10:22:22;26.90;42.10
29431;DHT22;16404;49.902;10.074;2023-07-31T10:25:08;26.80;41.80
29431;DHT22;16404;49.902;10.074;2023-07-31T10:27:53;26.80;41.80
29431;DHT22;16404;49.902;10.074;2023-07-31T10:30:38;26.80;42.00
29431;DHT22;16404;49.902;10.074;2023-07-31T10:33:23;26.90;42.10
29431;DHT22;16404;49.902;10.074;2023-07-31T10:36:20;26.90;41.80
29431;DHT22;16404;49.902;10.074;2023-07-31T10:39:35;26.90;41.50
29431;DHT22;16404;49.902;10.074;2023-07-31T10:42:37;26.90;41.60
29431;DHT22;16404;49.902;10.074;2023-07-31T10:45:42;27.00;42.00
29431;DHT22;16404;49.902;10.074;2023-07-31T10:48:33;27.10;41.60
29431;DHT22;16404;49.902;10.074;2023-07-31T10:51:21;27.30;41.10
29431;DHT22;16404;49.902;10.074;2023-07-31T10:54:16;27.50;41.00
29431;DHT22;16404;49.902;10.074;2023-07-31T10:57:02;27.50;40.80
29431;DHT22;16404;49.902;10.074;2023-07-31T11:00:29;27.60;40.90
29431;DHT22;16404;49.902;10.074;2023-07-31T11:03:18;27.50;41.80
29431;DHT22;16404;49.902;10.074;2023-07-31T11:06:02;27.40;41.40
29431;DHT22;16404;49.902;10.074;2023-07-31T11:08:49;27.30;41.30
29431;DHT22;16404;49.902;10.074;2023-07-31T11:11:33;27.30;41.30
29431;DHT22;16404;49.902;10.074;2023-07-31T11:14:18;27.30;41.10
29431;DHT22;16404;49.902;10.074;2023-07-31T11:17:07;27.30;41.30
29431;DHT22;16404;49.902;10.074;2023-07-31T11:19:51;27.20;41.30
29431;DHT22;16404;49.902;10.074;2023-07-31T11:22:36;27.20;41.40
29431;DHT22;16404;49.902;10.074;2023-07-31T11:25:22;27.20;41.10
29431;DHT22;16404;49.902;10.074;2023-07-31T11:28:13;27.20;41.10
29431;DHT22;16404;49.902;10.074;2023-07-31T11:30:58;27.20;41.30
29431;DHT22;16404;49.902;10.074;2023-07-31T11:33:43;27.10;41.20
29431;DHT22;16404;49.902;10.074;2023-07-31T11:36:27;27.10;41.20
29431;DHT22;16404;49.902;10.074;2023-07-31T11:39:12;27.10;41.00
29431;DHT22;16404;49.902;10.074;2023-07-31T11:42:00;27.10;41.00
29431;DHT22;16404;49.902;10.074;2023-07-31T11:44:45;27.20;41.00
29431;DHT22;16404;49.902;10.074;2023-07-31T11:47:33;27.30;40.20
29431;DHT22;16404;49.902;10.074;2023-07-31T11:50:21;27.30;40.10
29431;DHT22;16404;49.902;10.074;2023-07-31T11:53:07;27.30;40.00
29431;DHT22;16404;49.902;10.074;2023-07-31T11:55:54;27.40;40.20
29431;DHT22;16404;49.902;10.074;2023-07-31T11:58:40;27.50;40.20
29431;DHT22;16404;49.902;10.074;2023-07-31T12:01:27;27.40;39.90
29431;DHT22;16404;49.902;10.074;2023-07-31T12:04:12;27.40;39.70
29431;DHT22;16404;49.902;10.074;2023-07-31T12:06:56;27.40;40.00
29431;DHT22;16404;49.902;10.074;2023-07-31T12:09:54;27.50;40.20
29431;DHT22;16404;49.902;10.074;2023-07-31T12:12:39;27.40;39.80
29431;DHT22;16404;49.902;10.074;2023-07-31T12:15:29;27.50;40.00
29431;DHT22;16404;49.902;10.074;2023-07-31T12:18:20;27.50;40.20
29431;DHT22;16404;49.902;10.074;2023-07-31T12:21:06;27.50;39.70
29431;DHT22;16404;49.902;10.074;2023-07-31T12:23:52;27.50;39.50
29431;DHT22;16404;49.902;10.074;2023-07-31T12:26:38;27.50;39.30
29431;DHT22;16404;49.902;10.074;2023-07-31T12:29:22;27.40;39.20
29431;DHT22;16404;49.902;10.074;2023-07-31T12:32:23;27.40;39.50
29431;DHT22;16404;49.902;10.074;2023-07-31T12:35:12;27.40;40.40
29431;DHT22;16404;49.902;10.074;2023-07-31T12:38:01;27.40;40.10
29431;DHT22;16404;49.902;10.074;2023-07-31T12:40:46;27.40;39.80
29431;DHT22;16404;49.902;10.074;2023-07-31T12:43:30;27.40;40.10
29431;DHT22;16404;49.902;10.074;2023-07-31T12:46:15;27.40;39.70
29431;DHT22;16404;49.902;10.074;2023-07-31T12:49:01;27.50;39.80
29431;DHT22;16404;49.902;10.074;2023-07-31T12:51:46;27.60;39.80
29431;DHT22;16404;49.902;10.074;2023-07-31T12:54:30;27.70;39.70
29431;DHT22;16404;49.902;10.074;2023-07-31T12:57:15;27.80;39.00
29431;DHT22;16404;49.902;10.074;2023-07-31T12:59:59;27.70;39.00
29431;DHT22;16404;49.902;10.074;2023-07-31T13:02:44;27.70;39.10
29431;DHT22;16404;49.902;10.074;2023-07-31T13:05:29;27.60;39.30
29431;DHT22;16404;49.902;10.074;2023-07-31T13:08:13;27.60;39.30
29431;DHT22;16404;49.902;10.074;2023-07-31T13:11:00;27.70;39.60
29431;DHT22;16404;49.902;10.074;2023-07-31T13:13:44;27.80;39.80
29431;DHT22;16404;49.902;10.074;2023-07-31T13:16:29;27.80;39.40
29431;DHT22;16404;49.902;10.074;2023-07-31T13:19:13;27.70;39.50
29431;DHT22;16404;49.902;10.074;2023-07-31T13:21:58;27.60;39.60
29431;DHT22;16404;49.902;10.074;2023-07-31T13:24:42;27.60;40.00
29431;DHT22;16404;49.902;10.074;2023-07-31T13:27:27;27.50;40.30
29431;DHT22;16404;49.902;10.074;2023-07-31T13:30:12;27.40;40.70
29431;DHT22;16404;49.902;10.074;2023-07-31T13:32:56;27.60;40.90
29431;DHT22;16404;49.902;10.074;2023-07-31T13:35:41;27.70;40.80
29431;DHT22;16404;49.902;10.074;2023-07-31T13:38:25;27.80;40.40
29431;DHT22;16404;49.902;10.074;2023-07-31T13:41:10;27.80;40.20
29431;DHT22;16404;49.902;10.074;2023-07-31T13:43:54;27.90;40.40
29431;DHT22;16404;49.902;10.074;2023-07-31T13:46:39;27.80;40.70
29431;DHT22;16404;49.902;10.074;2023-07-31T13:49:23;27.80;40.10
29431;DHT22;16404;49.902;10.074;2023-07-31T13:52:08;27.70;40.20
29431;DHT22;16404;49.902;10.074;2023-07-31T13:54:53;27.70;40.00
29431;DHT22;16404;49.902;10.074;2023-07-31T13:57:37;27.60;40.00
29431;DHT22;16404;49.902;10.074;2023-07-31T14:00:22;27.60;40.60
29431;DHT22;16404;49.902;10.074;2023-07-31T14:03:06;27.60;41.10
29431;DHT22;16404;49.902;10.074;2023-07-31T14:05:52;27.80;40.40
29431;DHT22;16404;49.902;10.074;2023-07-31T14:08:37;27.90;40.30
29431;DHT22;16404;49.902;10.074;2023-07-31T14:11:22;28.00;40.10
29431;DHT22;16404;49.902;10.074;2023-07-31T14:14:08;28.00;39.60
29431;DHT22;16404;49.902;10.074;2023-07-31T14:16:52;27.80;39.20
29431;DHT22;16404;49.902;10.074;2023-07-31T14:19:37;27.70;39.30
29431;DHT22;16404;49.902;10.074;2023-07-31T14:22:31;27.60;39.60
29431;DHT22;16404;49.902;10.074;2023-07-31T14:25:17;27.50;39.70
29431;DHT22;16404;49.902;10.074;2023-07-31T14:28:02;27.30;40.00
29431;DHT22;16404;49.902;10.074;2023-07-31T14:30:46;27.30;40.30
29431;DHT22;16404;49.902;10.074;2023-07-31T14:33:31;27.10;40.40
29431;DHT22;16404;49.902;10.074;2023-07-31T14:36:16;27.10;40.60
29431;DHT22;16404;49.902;10.074;2023-07-31T14:39:00;27.10;40.70
29431;DHT22;16404;49.902;10.074;2023-07-31T14:41:45;27.10;40.80
29431;DHT22;16404;49.902;10.074;2023-07-31T14:44:30;27.10;40.90
29431;DHT22;16404;49.902;10.074;2023-07-31T14:47:15;27.10;41.00
29431;DHT22;16404;49.902;10.074;2023-07-31T14:50:00;27.20;40.90
29431;DHT22;16404;49.902;10.074;2023-07-31T14:52:45;27.20;40.80
29431;DHT22;16404;49.902;10.074;2023-07-31T14:55:29;27.20;40.90
29431;DHT22;16404;49.902;10.074;2023-07-31T14:58:13;27.20;40.90
29431;DHT22;16404;49.902;10.074;2023-07-31T15:00:58;27.20;41.00
29431;DHT22;16404;49.902;10.074;2023-07-31T15:03:43;27.10;41.00
29431;DHT22;16404;49.902;10.074;2023-07-31T15:06:28;27.10;41.20
29431;DHT22;16404;49.902;10.074;2023-07-31T15:09:12;27.00;41.10
29431;DHT22;16404;49.902;10.074;2023-07-31T15:11:57;27.00;41.30
29431;DHT22;16404;49.902;10.074;2023-07-31T15:14:41;27.10;41.40
29431;DHT22;16404;49.902;10.074;2023-07-31T15:17:26;27.00;41.30
29431;DHT22;16404;49.902;10.074;2023-07-31T15:20:11;27.00;41.40
29431;DHT22;16404;49.902;10.074;2023-07-31T15:22:56;27.00;41.70
29431;DHT22;16404;49.902;10.074;2023-07-31T15:25:40;27.10;41.50
29431;DHT22;16404;49.902;10.074;2023-07-31T15:28:25;27.10;41.70
29431;DHT22;16404;49.902;10.074;2023-07-31T15:31:10;27.10;41.80
29431;DHT22;16404;49.902;10.074;2023-07-31T15:33:54;27.20;42.00
29431;DHT22;16404;49.902;10.074;2023-07-31T15:36:39;27.20;41.70
29431;DHT22;16404;49.902;10.074;2023-07-31T15:39:24;27.30;41.70
29431;DHT22;16404;49.902;10.074;2023-07-31T15:42:08;27.20;41.70
29431;DHT22;16404;49.902;10.074;2023-07-31T15:44:53;27.30;42.00
29431;DHT22;16404;49.902;10.074;2023-07-31T15:47:37;27.40;41.90
29431;DHT22;16404;49.902;10.074;2023-07-31T15:50:22;27.40;41.90
29431;DHT22;16404;49.902;10.074;2023-07-31T15:53:07;27.40;41.90
29431;DHT22;16404;49.902;10.074;2023-07-31T15:55:51;27.30;41.80
29431;DHT22;16404;49.902;10.074;2023-07-31T15:58:36;27.30;42.00
29431;DHT22;16404;49.902;10.074;2023-07-31T16:01:20;27.20;42.10
29431;DHT22;16404;49.902;10.074;2023-07-31T16:04:05;27.00;42.20
29431;DHT22;16404;49.902;10.074;2023-07-31T16:06:49;26.90;42.40
29431;DHT22;16404;49.902;10.074;2023-07-31T16:09:34;26.90;42.50
29431;DHT22;16404;49.902;10.074;2023-07-31T16:12:18;26.80;42.50
29431;DHT22;16404;49.902;10.074;2023-07-31T16:15:03;26.90;42.60
29431;DHT22;16404;49.902;10.074;2023-07-31T16:17:48;26.80;42.70
29431;DHT22;16404;49.902;10.074;2023-07-31T16:20:32;26.80;42.80
29431;DHT22;16404;49.902;10.074;2023-07-31T16:23:17;26.70;42.90
29431;DHT22;16404;49.902;10.074;2023-07-31T16:26:01;26.60;42.80
29431;DHT22;16404;49.902;10.074;2023-07-31T16:28:46;26.60;43.20
29431;DHT22;16404;49.902;10.074;2023-07-31T16:31:30;26.50;43.30
29431;DHT22;16404;49.902;10.074;2023-07-31T16:34:15;26.50;43.40
29431;DHT22;16404;49.902;10.074;2023-07-31T16:36:59;26.40;43.50
29431;DHT22;16404;49.902;10.074;2023-07-31T16:39:44;26.40;43.60
29431;DHT22;16404;49.902;10.074;2023-07-31T16:42:31;26.30;43.70
29431;DHT22;16404;49.902;10.074;2023-07-31T16:45:16;26.30;43.80
29431;DHT22;16404;49.902;10.074;2023-07-31T16:48:01;26.30;43.90
29431;DHT22;16404;49.902;10.074;2023-07-31T16:50:47;26.20;44.10
29431;DHT22;16404;49.902;10.074;2023-07-31T16:53:31;26.20;44.50
29431;DHT22;16404;49.902;10.074;2023-07-31T16:56:16;26.10;44.60
29431;DHT22;16404;49.902;10.074;2023-07-31T16:59:00;26.10;44.60
29431;DHT22;16404;49.902;10.074;2023-07-31T17:01:45;26.10;44.50
29431;DHT22;16404;49.902;10.074;2023-07-31T17:04:30;26.00;44.40
29431;DHT22;16404;49.902;10.074;2023-07-31T17:07:15;25.90;44.40
29431;DHT22;16404;49.902;10.074;2023-07-31T17:10:00;25.70;44.80
29431;DHT22;16404;49.902;10.074;2023-07-31T17:12:44;25.70;45.00